createdAt,value
2018-07-20T00:00:00.849Z,24
2018-07-20T00:00:51.144Z,24
2018-07-20T00:01:42.069Z,24
2018-07-20T00:02:31.858Z,24
2018-07-20T00:03:21.889Z,24
2018-07-20T00:04:11.236Z,24
2018-07-20T00:05:02.286Z,24
2018-07-20T00:05:52.059Z,24
2018-07-20T00:06:41.939Z,24
2018-07-20T00:07:32.196Z,24
2018-07-20T00:08:21.556Z,24
2018-07-20T00:09:11.901Z,24
2018-07-20T00:10:02.412Z,24
2018-07-20T00:10:51.479Z,23.9
2018-07-20T00:11:42.015Z,24
2018-07-20T00:12:32.388Z,24
2018-07-20T00:13:22.162Z,24
2018-07-20T00:14:12.025Z,24
2018-07-20T00:15:01.561Z,24
2018-07-20T00:15:51.299Z,24
2018-07-20T00:16:42.338Z,24
2018-07-20T00:17:31.446Z,24
2018-07-20T00:18:22.346Z,24
2018-07-20T00:19:11.282Z,24
2018-07-20T00:20:02.894Z,24
2018-07-20T00:20:52.840Z,23.9
2018-07-20T00:21:42.089Z,24
2018-07-20T00:22:33.394Z,24
2018-07-20T00:23:22.932Z,23.9
2018-07-20T00:24:12.156Z,23.9
2018-07-20T00:25:02.854Z,23.9
2018-07-20T00:25:53.396Z,24
2018-07-20T00:26:43.230Z,24
2018-07-20T00:27:33.010Z,23.9
2018-07-20T00:28:22.780Z,23.9
2018-07-20T00:29:13.457Z,23.9
2018-07-20T00:30:03.490Z,24
2018-07-20T00:30:53.823Z,23.9
2018-07-20T00:31:42.748Z,23.9
2018-07-20T00:32:33.402Z,23.9
2018-07-20T00:33:23.421Z,23.9
2018-07-20T00:34:13.539Z,23.9
2018-07-20T00:35:03.303Z,23.9
2018-07-20T00:35:54.216Z,23.9
2018-07-20T00:36:43.743Z,23.9
2018-07-20T00:37:34.050Z,23.9
2018-07-20T00:38:23.870Z,23.9
2018-07-20T00:39:14.437Z,23.9
2018-07-20T00:40:03.941Z,23.9
2018-07-20T00:40:53.746Z,23.9
2018-07-20T00:41:44.543Z,23.9
2018-07-20T00:42:33.921Z,23.9
2018-07-20T00:43:23.993Z,23.9
2018-07-20T00:44:13.781Z,23.9
2018-07-20T00:45:04.176Z,23.9
2018-07-20T00:45:54.192Z,23.9
2018-07-20T00:46:44.554Z,23.9
2018-07-20T00:47:33.997Z,23.9
2018-07-20T00:48:23.844Z,23.9
2018-07-20T00:49:14.623Z,23.9
2018-07-20T00:50:05.738Z,23.9
2018-07-20T00:50:55.026Z,23.9
2018-07-20T00:51:45.104Z,23.9
2018-07-20T00:52:35.618Z,23.9
2018-07-20T00:53:24.700Z,23.9
2018-07-20T00:54:15.293Z,23.9
2018-07-20T00:55:05.532Z,23.9
2018-07-20T00:55:55.139Z,23.9
2018-07-20T00:56:45.972Z,23.9
2018-07-20T00:57:34.937Z,23.9
2018-07-20T00:58:25.378Z,23.9
2018-07-20T00:59:15.204Z,23.9
2018-07-20T01:00:04.679Z,23.9
2018-07-20T01:00:56.316Z,23.9
2018-07-20T01:01:45.857Z,23.9
2018-07-20T01:02:35.885Z,23.9
2018-07-20T01:03:25.724Z,23.9
2018-07-20T01:04:15.607Z,23.9
2018-07-20T01:05:06.472Z,23.9
2018-07-20T01:05:56.001Z,23.9
2018-07-20T01:06:46.056Z,23.9
2018-07-20T01:07:36.596Z,23.9
2018-07-20T01:08:26.366Z,23.9
2018-07-20T01:09:16.421Z,23.9
2018-07-20T01:10:06.441Z,23.9
2018-07-20T01:10:56.871Z,23.9
2018-07-20T01:11:46.634Z,23.9
2018-07-20T01:12:37.449Z,23.9
2018-07-20T01:13:26.236Z,23.9
2018-07-20T01:14:16.807Z,23.9
2018-07-20T01:15:07.390Z,23.9
2018-07-20T01:15:57.236Z,23.9
2018-07-20T01:16:47.300Z,23.9
2018-07-20T01:17:37.084Z,23.9
2018-07-20T01:18:27.142Z,23.9
2018-07-20T01:19:17.216Z,23.9
2018-07-20T01:20:07.553Z,23.9
2018-07-20T01:20:57.594Z,23.9
2018-07-20T01:21:47.620Z,23.9
2018-07-20T01:22:37.933Z,23.9
2018-07-20T01:23:28.301Z,23.9
2018-07-20T01:24:18.073Z,23.9
2018-07-20T01:25:08.111Z,23.9
2018-07-20T01:25:58.178Z,23.9
2018-07-20T01:26:48.291Z,23.9
2018-07-20T01:27:38.013Z,23.9
2018-07-20T01:28:28.629Z,23.9
2018-07-20T01:29:18.124Z,23.9
2018-07-20T01:30:08.916Z,23.9
2018-07-20T01:30:58.801Z,23.9
2018-07-20T01:31:48.628Z,23.9
2018-07-20T01:32:39.039Z,23.9
2018-07-20T01:33:29.029Z,23.9
2018-07-20T01:34:18.593Z,23.9
2018-07-20T01:35:08.349Z,23.9
2018-07-20T01:35:58.656Z,23.9
2018-07-20T01:36:48.811Z,23.9
2018-07-20T01:37:38.296Z,23.9
2018-07-20T01:38:28.659Z,23.9
2018-07-20T01:39:18.728Z,23.9
2018-07-20T01:40:08.779Z,23.9
2018-07-20T01:40:59.056Z,23.9
2018-07-20T01:41:49.718Z,23.9
2018-07-20T01:42:39.772Z,23.9
2018-07-20T01:43:29.234Z,23.9
2018-07-20T01:44:18.206Z,23.9
2018-07-20T01:45:09.643Z,23.9
2018-07-20T01:45:59.785Z,23.9
2018-07-20T01:46:49.808Z,23.9
2018-07-20T01:47:39.858Z,23.9
2018-07-20T01:48:29.643Z,23.9
2018-07-20T01:49:19.950Z,23.9
2018-07-20T01:50:10.016Z,23.9
2018-07-20T01:51:00.093Z,23.9
2018-07-20T01:51:50.141Z,23.9
2018-07-20T01:52:40.187Z,23.9
2018-07-20T01:53:30.003Z,23.9
2018-07-20T01:54:20.609Z,23.9
2018-07-20T01:55:10.400Z,23.9
2018-07-20T01:56:00.200Z,23.9
2018-07-20T01:56:50.790Z,23.9
2018-07-20T01:57:40.303Z,23.9
2018-07-20T01:58:30.658Z,23.9
2018-07-20T01:59:20.988Z,23.9
2018-07-20T02:00:10.305Z,23.9
2018-07-20T02:00:59.329Z,23.9
2018-07-20T02:01:50.926Z,23.9
2018-07-20T02:02:40.955Z,23.9
2018-07-20T02:03:30.286Z,23.9
2018-07-20T02:04:20.917Z,23.9
2018-07-20T02:05:10.997Z,23.9
2018-07-20T02:06:01.015Z,23.9
2018-07-20T02:06:50.800Z,23.9
2018-07-20T02:07:41.628Z,23.9
2018-07-20T02:08:30.943Z,23.9
2018-07-20T02:09:20.715Z,23.9
2018-07-20T02:10:11.325Z,23.9
2018-07-20T02:11:00.949Z,23.9
2018-07-20T02:11:50.733Z,23.9
2018-07-20T02:12:41.564Z,23.9
2018-07-20T02:13:31.365Z,23.9
2018-07-20T02:14:21.434Z,23.9
2018-07-20T02:15:11.490Z,23.9
2018-07-20T02:16:01.548Z,23.9
2018-07-20T02:16:51.335Z,23.9
2018-07-20T02:17:40.800Z,23.9
2018-07-20T02:18:31.230Z,23.9
2018-07-20T02:19:21.754Z,23.9
2018-07-20T02:20:12.652Z,23.9
2018-07-20T02:21:01.839Z,23.9
2018-07-20T02:21:52.187Z,23.9
2018-07-20T02:22:41.740Z,23.9
2018-07-20T02:23:32.617Z,23.9
2018-07-20T02:24:22.630Z,23.9
2018-07-20T02:25:11.710Z,23.9
2018-07-20T02:26:03.089Z,23.9
2018-07-20T02:26:53.170Z,23.9
2018-07-20T02:27:42.309Z,23.9
2018-07-20T02:28:32.910Z,23.9
2018-07-20T02:29:22.969Z,23.9
2018-07-20T02:30:13.412Z,23.9
2018-07-20T02:31:03.472Z,23.9
2018-07-20T02:31:53.012Z,23.9
2018-07-20T02:32:42.784Z,23.9
2018-07-20T02:33:32.540Z,23.9
2018-07-20T02:34:22.867Z,23.9
2018-07-20T02:35:13.204Z,23.9
2018-07-20T02:36:03.288Z,23.9
2018-07-20T02:36:53.325Z,23.9
2018-07-20T02:37:43.357Z,23.9
2018-07-20T02:38:34.000Z,23.9
2018-07-20T02:39:24.103Z,23.9
2018-07-20T02:40:13.875Z,23.9
2018-07-20T02:41:03.377Z,23.9
2018-07-20T02:41:52.916Z,23.9
2018-07-20T02:42:43.620Z,23.9
2018-07-20T02:43:33.610Z,23.9
2018-07-20T02:44:23.707Z,23.9
2018-07-20T02:45:13.827Z,23.9
2018-07-20T02:46:04.118Z,23.9
2018-07-20T02:46:53.612Z,23.9
2018-07-20T02:47:43.404Z,23.9
2018-07-20T02:48:33.188Z,23.9
2018-07-20T02:49:23.546Z,23.9
2018-07-20T02:50:14.450Z,23.9
2018-07-20T02:51:04.409Z,23.9
2018-07-20T02:51:53.941Z,23.9
2018-07-20T02:52:44.535Z,23.9
2018-07-20T02:53:34.616Z,23.9
2018-07-20T02:54:25.230Z,23.9
2018-07-20T02:55:14.745Z,23.9
2018-07-20T02:56:04.537Z,23.9
2018-07-20T02:56:54.393Z,23.9
2018-07-20T02:57:45.256Z,23.9
2018-07-20T02:58:34.524Z,23.9
2018-07-20T02:59:24.677Z,23.9
2018-07-20T03:00:14.742Z,23.9
2018-07-20T03:01:05.278Z,23.9
2018-07-20T03:01:54.799Z,23.9
2018-07-20T03:02:44.836Z,23.9
2018-07-20T03:03:34.347Z,23.9
2018-07-20T03:04:24.942Z,23.9
2018-07-20T03:05:15.264Z,23.9
2018-07-20T03:06:05.631Z,23.9
2018-07-20T03:06:54.864Z,23.9
2018-07-20T03:07:45.192Z,23.9
2018-07-20T03:08:36.277Z,23.9
2018-07-20T03:09:25.380Z,23.8
2018-07-20T03:10:15.327Z,23.8
2018-07-20T03:11:06.232Z,23.9
2018-07-20T03:11:55.258Z,23.9
2018-07-20T03:12:46.068Z,23.9
2018-07-20T03:13:36.699Z,23.8
2018-07-20T03:14:26.237Z,23.9
2018-07-20T03:15:16.374Z,23.9
2018-07-20T03:16:05.785Z,23.9
2018-07-20T03:16:56.680Z,23.8
2018-07-20T03:17:46.747Z,23.9
2018-07-20T03:18:36.749Z,23.9
2018-07-20T03:19:26.583Z,23.8
2018-07-20T03:20:16.913Z,23.8
2018-07-20T03:21:07.800Z,23.8
2018-07-20T03:21:56.760Z,23.8
2018-07-20T03:22:46.280Z,23.8
2018-07-20T03:23:37.447Z,23.8
2018-07-20T03:24:27.529Z,23.8
2018-07-20T03:25:32.417Z,23.8
2018-07-20T03:26:06.705Z,23.8
2018-07-20T03:26:56.356Z,23.8
2018-07-20T03:27:47.283Z,23.8
2018-07-20T03:28:37.033Z,23.8
2018-07-20T03:29:27.641Z,23.8
2018-07-20T03:30:17.419Z,23.8
2018-07-20T03:31:06.672Z,23.8
2018-07-20T03:31:58.101Z,23.8
2018-07-20T03:32:48.053Z,23.8
2018-07-20T03:33:37.754Z,23.8
2018-07-20T03:34:27.757Z,23.8
2018-07-20T03:35:18.067Z,23.8
2018-07-20T03:36:07.835Z,23.8
2018-07-20T03:36:57.363Z,23.8
2018-07-20T03:37:47.508Z,23.8
2018-07-20T03:38:37.526Z,23.8
2018-07-20T03:39:28.327Z,23.8
2018-07-20T03:40:17.888Z,23.8
2018-07-20T03:41:07.682Z,23.8
2018-07-20T03:41:57.520Z,23.8
2018-07-20T03:42:48.151Z,23.8
2018-07-20T03:43:37.904Z,23.8
2018-07-20T03:44:27.989Z,23.8
2018-07-20T03:45:18.337Z,23.8
2018-07-20T03:46:08.435Z,23.8
2018-07-20T03:46:58.757Z,23.8
2018-07-20T03:47:48.552Z,23.8
2018-07-20T03:48:39.097Z,23.8
2018-07-20T03:49:27.251Z,23.8
2018-07-20T03:50:19.203Z,23.8
2018-07-20T03:51:09.033Z,23.8
2018-07-20T03:51:59.055Z,23.8
2018-07-20T03:52:48.877Z,23.8
2018-07-20T03:53:39.509Z,23.8
2018-07-20T03:54:29.600Z,23.8
2018-07-20T03:55:19.903Z,23.8
2018-07-20T03:56:09.380Z,23.8
2018-07-20T03:56:59.409Z,23.8
2018-07-20T03:57:50.027Z,23.8
2018-07-20T03:58:39.804Z,23.8
2018-07-20T03:59:30.220Z,23.8
2018-07-20T04:00:20.218Z,23.8
2018-07-20T04:01:10.063Z,23.8
2018-07-20T04:02:00.218Z,23.8
2018-07-20T04:02:49.838Z,23.8
2018-07-20T04:03:40.507Z,23.8
2018-07-20T04:04:30.283Z,23.8
2018-07-20T04:05:20.594Z,23.8
2018-07-20T04:06:10.425Z,23.8
2018-07-20T04:07:00.462Z,23.8
2018-07-20T04:07:50.862Z,23.8
2018-07-20T04:08:40.896Z,23.8
2018-07-20T04:09:30.636Z,23.8
2018-07-20T04:10:21.840Z,23.8
2018-07-20T04:11:11.066Z,23.8
2018-07-20T04:12:01.150Z,23.8
2018-07-20T04:12:50.881Z,23.8
2018-07-20T04:13:40.667Z,23.8
2018-07-20T04:14:31.292Z,23.8
2018-07-20T04:15:21.062Z,23.8
2018-07-20T04:16:11.484Z,23.8
2018-07-20T04:17:01.450Z,23.8
2018-07-20T04:17:51.022Z,23.8
2018-07-20T04:18:41.084Z,23.8
2018-07-20T04:19:31.681Z,23.8
2018-07-20T04:20:21.744Z,23.8
2018-07-20T04:21:11.897Z,23.8
2018-07-20T04:22:01.346Z,23.8
2018-07-20T04:22:51.691Z,23.8
2018-07-20T04:23:41.743Z,23.8
2018-07-20T04:24:32.046Z,23.8
2018-07-20T04:25:22.154Z,23.8
2018-07-20T04:26:11.170Z,23.8
2018-07-20T04:27:01.714Z,23.8
2018-07-20T04:27:51.198Z,23.8
2018-07-20T04:28:41.542Z,23.8
2018-07-20T04:29:31.939Z,23.8
2018-07-20T04:30:22.215Z,23.8
2018-07-20T04:31:12.635Z,23.8
2018-07-20T04:32:02.047Z,23.8
2018-07-20T04:32:52.738Z,23.8
2018-07-20T04:33:42.480Z,23.8
2018-07-20T04:34:32.305Z,23.8
2018-07-20T04:35:22.890Z,23.8
2018-07-20T04:36:12.646Z,23.8
2018-07-20T04:37:03.030Z,23.8
2018-07-20T04:37:52.753Z,23.8
2018-07-20T04:38:42.815Z,23.8
2018-07-20T04:39:32.898Z,23.8
2018-07-20T04:40:22.985Z,23.8
2018-07-20T04:41:12.205Z,23.8
2018-07-20T04:42:03.353Z,23.8
2018-07-20T04:42:53.402Z,23.8
2018-07-20T04:43:43.338Z,23.8
2018-07-20T04:44:33.533Z,23.8
2018-07-20T04:45:22.817Z,23.8
2018-07-20T04:46:13.178Z,23.8
2018-07-20T04:47:03.738Z,23.8
2018-07-20T04:47:53.540Z,23.8
2018-07-20T04:48:43.893Z,23.8
2018-07-20T04:49:33.398Z,23.8
2018-07-20T04:50:24.005Z,23.8
2018-07-20T04:51:13.803Z,23.8
2018-07-20T04:52:02.482Z,23.8
2018-07-20T04:52:53.954Z,23.8
2018-07-20T04:53:43.468Z,23.8
2018-07-20T04:54:33.815Z,23.8
2018-07-20T04:55:23.557Z,23.8
2018-07-20T04:56:14.249Z,23.8
2018-07-20T04:57:02.953Z,23.8
2018-07-20T04:57:53.758Z,23.8
2018-07-20T04:58:43.853Z,23.8
2018-07-20T04:59:34.450Z,23.8
2018-07-20T05:00:24.527Z,23.8
2018-07-20T05:01:14.889Z,23.8
2018-07-20T05:02:04.654Z,23.8
2018-07-20T05:02:54.416Z,23.8
2018-07-20T05:03:45.146Z,23.8
2018-07-20T05:04:34.831Z,23.8
2018-07-20T05:05:24.611Z,23.8
2018-07-20T05:06:15.276Z,23.8
2018-07-20T05:07:05.361Z,23.8
2018-07-20T05:07:55.076Z,23.8
2018-07-20T05:08:45.290Z,23.8
2018-07-20T05:09:34.931Z,23.8
2018-07-20T05:10:25.273Z,23.8
2018-07-20T05:11:15.304Z,23.8
2018-07-20T05:12:05.682Z,23.8
2018-07-20T05:12:55.434Z,23.8
2018-07-20T05:13:45.825Z,23.8
2018-07-20T05:14:35.845Z,23.8
2018-07-20T05:15:25.372Z,23.8
2018-07-20T05:16:15.958Z,23.8
2018-07-20T05:17:06.045Z,23.8
2018-07-20T05:17:56.130Z,23.8
2018-07-20T05:18:45.347Z,23.8
2018-07-20T05:19:35.211Z,23.8
2018-07-20T05:20:25.571Z,23.8
2018-07-20T05:21:16.402Z,23.8
2018-07-20T05:22:06.099Z,23.8
2018-07-20T05:22:55.909Z,23.8
2018-07-20T05:23:46.314Z,23.9
2018-07-20T05:24:36.335Z,23.9
2018-07-20T05:25:26.432Z,23.9
2018-07-20T05:26:16.193Z,23.8
2018-07-20T05:27:06.853Z,23.8
2018-07-20T05:27:56.921Z,23.9
2018-07-20T05:28:45.844Z,23.9
2018-07-20T05:29:36.763Z,23.9
2018-07-20T05:30:26.481Z,23.9
2018-07-20T05:31:17.216Z,23.9
2018-07-20T05:32:06.961Z,23.9
2018-07-20T05:32:56.786Z,23.9
2018-07-20T05:33:47.281Z,23.9
2018-07-20T05:34:36.924Z,23.9
2018-07-20T05:35:26.643Z,23.9
2018-07-20T05:36:16.965Z,23.9
2018-07-20T05:37:07.032Z,23.9
2018-07-20T05:37:57.072Z,23.9
2018-07-20T05:38:47.709Z,23.9
2018-07-20T05:39:37.495Z,23.9
2018-07-20T05:40:27.901Z,23.9
2018-07-20T05:41:17.066Z,23.9
2018-07-20T05:42:07.733Z,23.9
2018-07-20T05:42:57.743Z,23.9
2018-07-20T05:43:47.257Z,23.9
2018-07-20T05:44:37.343Z,23.9
2018-07-20T05:45:27.426Z,23.9
2018-07-20T05:46:17.545Z,23.9
2018-07-20T05:47:08.308Z,23.9
2018-07-20T05:47:57.571Z,23.9
2018-07-20T05:48:48.234Z,23.9
2018-07-20T05:49:38.243Z,23.9
2018-07-20T05:50:27.782Z,23.9
2018-07-20T05:51:18.079Z,23.9
2018-07-20T05:52:08.725Z,24
2018-07-20T05:52:58.533Z,24
2018-07-20T05:53:47.995Z,24
2018-07-20T05:54:38.869Z,24
2018-07-20T05:55:28.705Z,24
2018-07-20T05:56:18.445Z,23.9
2018-07-20T05:57:08.803Z,24
2018-07-20T05:57:58.871Z,24
2018-07-20T05:58:49.240Z,24
2018-07-20T05:59:38.977Z,24
2018-07-20T06:00:29.071Z,23.9
2018-07-20T06:01:18.877Z,24
2018-07-20T06:02:09.460Z,24
2018-07-20T06:02:59.365Z,24
2018-07-20T06:03:49.052Z,24
2018-07-20T06:04:39.231Z,24
2018-07-20T06:05:30.295Z,24
2018-07-20T06:06:19.248Z,24
2018-07-20T06:07:09.351Z,24
2018-07-20T06:07:59.698Z,24
2018-07-20T06:08:49.199Z,24
2018-07-20T06:09:39.254Z,24
2018-07-20T06:10:29.629Z,24
2018-07-20T06:11:18.898Z,24
2018-07-20T06:12:10.001Z,24
2018-07-20T06:13:00.027Z,24
2018-07-20T06:13:49.594Z,24
2018-07-20T06:14:40.152Z,24
2018-07-20T06:15:30.230Z,24
2018-07-20T06:16:20.570Z,24
2018-07-20T06:17:10.108Z,24
2018-07-20T06:17:59.879Z,24
2018-07-20T06:18:49.947Z,24
2018-07-20T06:19:39.716Z,24
2018-07-20T06:20:30.951Z,24
2018-07-20T06:21:20.914Z,24
2018-07-20T06:22:10.862Z,24
2018-07-20T06:23:00.855Z,24
2018-07-20T06:23:51.715Z,24
2018-07-20T06:24:41.184Z,24
2018-07-20T06:25:31.259Z,23.9
2018-07-20T06:26:20.553Z,24
2018-07-20T06:27:11.416Z,24
2018-07-20T06:28:01.483Z,23.9
2018-07-20T06:28:50.672Z,23.9
2018-07-20T06:29:42.687Z,23.9
2018-07-20T06:30:31.705Z,23.9
2018-07-20T06:31:21.445Z,23.9
2018-07-20T06:32:11.793Z,23.9
2018-07-20T06:33:00.859Z,23.9
2018-07-20T06:33:51.317Z,23.9
2018-07-20T06:34:41.203Z,23.9
2018-07-20T06:35:30.997Z,23.9
2018-07-20T06:36:21.345Z,23.9
2018-07-20T06:37:11.435Z,23.9
2018-07-20T06:38:00.628Z,23.9
2018-07-20T06:38:51.531Z,23.9
2018-07-20T06:39:41.882Z,23.9
2018-07-20T06:40:31.916Z,23.9
2018-07-20T06:41:21.702Z,23.9
2018-07-20T06:42:11.546Z,23.9
2018-07-20T06:43:02.604Z,23.9
2018-07-20T06:43:51.685Z,23.9
2018-07-20T06:44:42.331Z,23.9
2018-07-20T06:45:32.043Z,23.9
2018-07-20T06:46:22.580Z,23.9
2018-07-20T06:47:12.089Z,23.9
2018-07-20T06:48:02.166Z,23.9
2018-07-20T06:48:52.512Z,23.9
2018-07-20T06:49:42.988Z,23.9
2018-07-20T06:50:32.909Z,23.9
2018-07-20T06:51:22.476Z,23.9
2018-07-20T06:52:13.063Z,23.9
2018-07-20T06:53:03.131Z,23.9
2018-07-20T06:53:53.492Z,23.9
2018-07-20T06:54:42.966Z,23.9
2018-07-20T06:55:33.018Z,23.9
2018-07-20T06:56:22.549Z,23.9
2018-07-20T06:57:13.465Z,23.9
2018-07-20T06:58:03.730Z,23.9
2018-07-20T06:58:53.915Z,23.9
2018-07-20T06:59:43.321Z,23.9
2018-07-20T07:00:32.552Z,23.9
2018-07-20T07:01:24.007Z,23.9
2018-07-20T07:02:13.525Z,23.9
2018-07-20T07:03:03.305Z,23.9
2018-07-20T07:03:53.935Z,23.9
2018-07-20T07:04:44.233Z,23.9
2018-07-20T07:05:33.767Z,23.9
2018-07-20T07:06:23.598Z,23.9
2018-07-20T07:07:13.621Z,23.9
2018-07-20T07:08:04.296Z,23.9
2018-07-20T07:08:54.042Z,23.9
2018-07-20T07:09:44.450Z,23.9
2018-07-20T07:10:34.728Z,23.9
2018-07-20T07:11:23.476Z,23.9
2018-07-20T07:12:14.286Z,23.9
2018-07-20T07:13:04.120Z,23.9
2018-07-20T07:13:54.680Z,23.9
2018-07-20T07:14:44.305Z,23.9
2018-07-20T07:15:34.857Z,23.9
2018-07-20T07:16:23.922Z,23.9
2018-07-20T07:17:15.271Z,23.9
2018-07-20T07:18:04.470Z,23.9
2018-07-20T07:18:54.873Z,23.9
2018-07-20T07:19:45.169Z,23.9
2018-07-20T07:20:34.949Z,23.9
2018-07-20T07:21:24.757Z,23.9
2018-07-20T07:22:15.451Z,23.9
2018-07-20T07:23:05.409Z,23.9
2018-07-20T07:23:55.795Z,23.9
2018-07-20T07:24:45.575Z,23.9
2018-07-20T07:25:35.018Z,23.9
2018-07-20T07:26:25.729Z,23.9
2018-07-20T07:27:15.461Z,23.9
2018-07-20T07:28:05.232Z,23.9
2018-07-20T07:28:55.577Z,23.9
2018-07-20T07:29:45.962Z,23.9
2018-07-20T07:30:35.675Z,23.9
2018-07-20T07:31:26.055Z,23.9
2018-07-20T07:32:15.859Z,23.9
2018-07-20T07:33:06.450Z,23.9
2018-07-20T07:33:56.193Z,23.9
2018-07-20T07:34:45.738Z,23.9
2018-07-20T07:35:36.358Z,23.9
2018-07-20T07:36:26.112Z,23.9
2018-07-20T07:37:16.747Z,23.9
2018-07-20T07:38:06.320Z,23.9
2018-07-20T07:38:56.643Z,23.9
2018-07-20T07:39:46.699Z,23.9
2018-07-20T07:40:36.717Z,23.9
2018-07-20T07:41:25.986Z,23.9
2018-07-20T07:42:18.134Z,23.8
2018-07-20T07:43:06.624Z,23.9
2018-07-20T07:43:56.445Z,23.9
2018-07-20T07:44:47.063Z,23.9
2018-07-20T07:45:37.085Z,23.9
2018-07-20T07:46:26.910Z,23.9
2018-07-20T07:47:17.260Z,23.9
2018-07-20T07:48:07.312Z,23.9
2018-07-20T07:48:57.320Z,23.9
2018-07-20T07:49:47.684Z,23.9
2018-07-20T07:50:37.474Z,23.9
2018-07-20T07:51:27.625Z,23.9
2018-07-20T07:52:17.890Z,23.9
2018-07-20T07:53:06.847Z,23.9
2018-07-20T07:53:57.508Z,23.9
2018-07-20T07:54:47.937Z,23.9
2018-07-20T07:55:38.214Z,23.9
2018-07-20T07:56:27.385Z,23.9
2018-07-20T07:57:18.327Z,23.9
2018-07-20T07:58:07.828Z,23.9
2018-07-20T07:58:58.184Z,23.9
2018-07-20T07:59:47.987Z,23.9
2018-07-20T08:00:37.778Z,23.9
2018-07-20T08:01:27.809Z,23.9
2018-07-20T08:02:18.160Z,23.9
2018-07-20T08:03:08.691Z,23.9
2018-07-20T08:03:58.002Z,23.9
2018-07-20T08:04:48.133Z,23.9
2018-07-20T08:05:38.414Z,23.9
2018-07-20T08:06:28.201Z,23.9
2018-07-20T08:07:18.261Z,23.9
2018-07-20T08:08:07.549Z,23.9
2018-07-20T08:08:57.989Z,23.9
2018-07-20T08:09:49.700Z,23.9
2018-07-20T08:10:38.249Z,23.9
2018-07-20T08:11:28.762Z,24
2018-07-20T08:12:18.600Z,24
2018-07-20T08:13:08.951Z,24
2018-07-20T08:13:58.525Z,24
2018-07-20T08:14:49.627Z,24
2018-07-20T08:15:38.928Z,24
2018-07-20T08:16:29.241Z,24
2018-07-20T08:17:19.983Z,24
2018-07-20T08:18:08.791Z,24
2018-07-20T08:18:59.132Z,24
2018-07-20T08:19:49.763Z,24
2018-07-20T08:20:39.262Z,24.1
2018-07-20T08:21:29.488Z,24.1
2018-07-20T08:22:19.669Z,24.1
2018-07-20T08:23:09.826Z,24.1
2018-07-20T08:24:00.331Z,24.1
2018-07-20T08:24:49.837Z,24.1
2018-07-20T08:25:39.852Z,24.1
2018-07-20T08:26:30.279Z,24.1
2018-07-20T08:27:20.252Z,24.1
2018-07-20T08:28:10.429Z,24.1
2018-07-20T08:29:00.721Z,24.1
2018-07-20T08:29:50.478Z,24.1
2018-07-20T08:30:40.800Z,24.1
2018-07-20T08:31:30.060Z,24.1
2018-07-20T08:32:20.940Z,24.1
2018-07-20T08:33:10.543Z,24.1
2018-07-20T08:34:01.141Z,24.1
2018-07-20T08:34:50.317Z,24.1
2018-07-20T08:35:40.974Z,24.1
2018-07-20T08:36:30.433Z,24.1
2018-07-20T08:37:20.762Z,24.1
2018-07-20T08:38:11.233Z,24.1
2018-07-20T08:39:01.117Z,24.1
2018-07-20T08:39:50.959Z,24.1
2018-07-20T08:40:41.359Z,24.1
2018-07-20T08:41:31.402Z,24.1
2018-07-20T08:42:21.460Z,24.1
2018-07-20T08:43:11.799Z,24.1
2018-07-20T08:44:01.268Z,24.1
2018-07-20T08:44:51.623Z,24.1
2018-07-20T08:45:41.988Z,24.1
2018-07-20T08:46:31.309Z,24.1
2018-07-20T08:47:22.135Z,24.1
2018-07-20T08:48:11.918Z,24.1
2018-07-20T08:49:01.950Z,24.1
2018-07-20T08:49:52.056Z,24.1
2018-07-20T08:50:42.099Z,24.1
2018-07-20T08:51:31.864Z,24.1
2018-07-20T08:52:21.964Z,24.1
2018-07-20T08:53:12.296Z,24.1
2018-07-20T08:54:03.093Z,24.1
2018-07-20T08:54:52.462Z,24.1
2018-07-20T08:55:41.916Z,24.1
2018-07-20T08:56:32.534Z,24.1
2018-07-20T08:57:22.373Z,24.1
2018-07-20T08:58:12.476Z,24.1
2018-07-20T08:59:03.330Z,24.1
2018-07-20T08:59:52.703Z,24.1
2018-07-20T09:00:43.149Z,24.1
2018-07-20T09:01:32.661Z,24.1
2018-07-20T09:02:23.531Z,24.1
2018-07-20T09:03:13.435Z,24.1
2018-07-20T09:04:02.834Z,24.1
2018-07-20T09:04:53.178Z,24.1
2018-07-20T09:05:42.656Z,24.1
2018-07-20T09:06:33.070Z,24.1
2018-07-20T09:07:23.133Z,24.1
2018-07-20T09:08:13.396Z,24.2
2018-07-20T09:09:03.340Z,24.2
2018-07-20T09:09:53.514Z,24.2
2018-07-20T09:10:43.572Z,24.2
2018-07-20T09:11:32.956Z,24.2
2018-07-20T09:12:23.734Z,24.2
2018-07-20T09:13:13.519Z,24.2
2018-07-20T09:14:03.445Z,24.2
2018-07-20T09:14:53.938Z,24.2
2018-07-20T09:15:43.742Z,24.2
2018-07-20T09:16:34.117Z,24.2
2018-07-20T09:17:24.075Z,24.2
2018-07-20T09:18:14.224Z,24.2
2018-07-20T09:19:04.298Z,24.3
2018-07-20T09:19:54.427Z,24.2
2018-07-20T09:20:46.628Z,24.3
2018-07-20T09:21:34.479Z,24.3
2018-07-20T09:22:24.292Z,24.3
2018-07-20T09:23:14.914Z,24.3
2018-07-20T09:24:04.669Z,24.3
2018-07-20T09:24:54.832Z,24.3
2018-07-20T09:25:43.980Z,24.3
2018-07-20T09:26:35.133Z,24.3
2018-07-20T09:27:25.196Z,24.3
2018-07-20T09:28:15.308Z,24.3
2018-07-20T09:29:04.211Z,24.3
2018-07-20T09:29:55.107Z,24.3
2018-07-20T09:30:44.165Z,24.3
2018-07-20T09:31:35.214Z,24.3
2018-07-20T09:32:25.619Z,24.3
2018-07-20T09:33:15.662Z,24.3
2018-07-20T09:34:06.156Z,24.3
2018-07-20T09:34:55.776Z,24.3
2018-07-20T09:35:45.824Z,24.3
2018-07-20T09:36:35.388Z,24.3
2018-07-20T09:37:25.674Z,24.3
2018-07-20T09:38:15.451Z,24.4
2018-07-20T09:39:05.845Z,24.3
2018-07-20T09:39:55.908Z,24.3
2018-07-20T09:40:46.189Z,24.4
2018-07-20T09:41:36.005Z,24.4
2018-07-20T09:42:25.760Z,24.4
2018-07-20T09:43:16.385Z,24.4
2018-07-20T09:44:06.729Z,24.4
2018-07-20T09:44:56.530Z,24.4
2018-07-20T09:45:46.591Z,24.4
2018-07-20T09:46:36.636Z,24.4
2018-07-20T09:47:26.146Z,24.4
2018-07-20T09:48:16.776Z,24.4
2018-07-20T09:49:08.200Z,24.4
2018-07-20T09:49:56.721Z,24.4
2018-07-20T09:50:46.670Z,24.4
2018-07-20T09:51:36.514Z,24.4
2018-07-20T09:52:27.087Z,24.4
2018-07-20T09:53:16.593Z,24.4
2018-07-20T09:54:06.391Z,24.4
2018-07-20T09:54:56.999Z,24.4
2018-07-20T09:55:47.101Z,24.4
2018-07-20T09:56:37.149Z,24.4
2018-07-20T09:57:26.659Z,24.4
2018-07-20T09:58:16.794Z,24.4
2018-07-20T09:59:06.769Z,24.4
2018-07-20T09:59:58.258Z,24.4
2018-07-20T10:00:46.909Z,24.4
2018-07-20T10:01:37.036Z,24.4
2018-07-20T10:02:27.896Z,24.5
2018-07-20T10:03:17.695Z,24.4
2018-07-20T10:04:07.454Z,24.5
2018-07-20T10:04:57.902Z,24.5
2018-07-20T10:05:48.129Z,24.5
2018-07-20T10:06:37.650Z,24.5
2018-07-20T10:07:27.994Z,24.5
2018-07-20T10:08:18.405Z,24.5
2018-07-20T10:09:08.136Z,24.5
2018-07-20T10:09:57.804Z,24.5
2018-07-20T10:10:48.516Z,24.5
2018-07-20T10:11:37.813Z,24.5
2018-07-20T10:12:28.662Z,24.5
2018-07-20T10:13:18.703Z,24.5
2018-07-20T10:14:08.202Z,24.5
2018-07-20T10:14:58.906Z,24.5
2018-07-20T10:15:48.655Z,24.5
2018-07-20T10:16:38.909Z,24.5
2018-07-20T10:17:28.740Z,24.5
2018-07-20T10:18:18.820Z,24.5
2018-07-20T10:19:10.381Z,24.5
2018-07-20T10:19:58.703Z,24.5
2018-07-20T10:20:49.301Z,24.5
2018-07-20T10:21:39.324Z,24.5
2018-07-20T10:22:29.365Z,24.5
2018-07-20T10:23:18.900Z,24.5
2018-07-20T10:24:09.230Z,24.5
2018-07-20T10:24:59.103Z,24.5
2018-07-20T10:25:50.456Z,24.5
2018-07-20T10:26:39.419Z,24.5
2018-07-20T10:27:29.792Z,24.5
2018-07-20T10:28:19.852Z,24.5
2018-07-20T10:29:09.892Z,24.5
2018-07-20T10:29:59.215Z,24.5
2018-07-20T10:30:50.202Z,24.5
2018-07-20T10:31:40.067Z,24.5
2018-07-20T10:32:29.654Z,24.5
2018-07-20T10:33:19.974Z,24.6
2018-07-20T10:34:09.729Z,24.6
2018-07-20T10:35:00.360Z,24.6
2018-07-20T10:35:49.937Z,24.6
2018-07-20T10:36:39.880Z,24.6
2018-07-20T10:37:30.597Z,24.6
2018-07-20T10:38:20.366Z,24.6
2018-07-20T10:39:10.704Z,24.6
2018-07-20T10:40:00.744Z,24.6
2018-07-20T10:40:50.892Z,24.6
2018-07-20T10:41:40.337Z,24.6
2018-07-20T10:42:30.399Z,24.6
2018-07-20T10:43:21.395Z,24.6
2018-07-20T10:44:11.139Z,24.6
2018-07-20T10:45:01.114Z,24.6
2018-07-20T10:45:50.918Z,24.6
2018-07-20T10:46:40.217Z,24.6
2018-07-20T10:47:30.543Z,24.6
2018-07-20T10:48:21.173Z,24.6
2018-07-20T10:49:11.249Z,24.6
2018-07-20T10:50:01.025Z,24.6
2018-07-20T10:50:50.891Z,24.6
2018-07-20T10:51:41.121Z,24.6
2018-07-20T10:52:31.473Z,24.6
2018-07-20T10:53:21.210Z,24.6
2018-07-20T10:54:11.874Z,24.6
2018-07-20T10:55:01.443Z,24.6
2018-07-20T10:55:51.173Z,24.6
2018-07-20T10:56:41.193Z,24.6
2018-07-20T10:57:32.107Z,24.6
2018-07-20T10:58:22.133Z,24.6
2018-07-20T10:59:11.731Z,24.6
2018-07-20T11:00:01.179Z,24.6
2018-07-20T11:00:51.560Z,24.6
2018-07-20T11:01:43.539Z,24.6
2018-07-20T11:02:32.457Z,24.6
2018-07-20T11:03:21.714Z,24.6
2018-07-20T11:04:12.604Z,24.6
2018-07-20T11:05:02.102Z,24.6
2018-07-20T11:05:52.513Z,24.6
2018-07-20T11:06:42.531Z,24.6
2018-07-20T11:07:32.586Z,24.6
2018-07-20T11:08:22.950Z,24.6
2018-07-20T11:09:12.971Z,24.6
2018-07-20T11:10:03.047Z,24.6